ENLX weather

Lørenskog Heliport, Ahus
Lørenskog, Akershus, Norway

Public forecast

Using degrees Celsius for public forecast. Weather courtesy of forecast.io.

Closest aviation weather report (METAR) to Lørenskog Heliport, Ahus

Closest report is Oslo, Fornebu Airport, 11.3 nm (21.0 km) W. Retrieved 2020/06/01 19:50 UTC (24 minutes ago):

ENFB 011950Z AUTO 22013KT 2700NDV BR BKN003/// ///// Q//// W///S/

Closest aviation forecast (TAF) to Lørenskog Heliport, Ahus

Closest forecast is Oslo Gardermoen Airport, 16.1 nm (29.8 km) NNE. Retrieved 2020/06/01 18:57 UTC (1 hour ago):

TAF ENGM 011700Z 0118/0218 20010KT CAVOK BECMG 0119/0121 01005KT BECMG 0209/0211 18010KT